Time;durP1;ratioP1;P1;durP2;ratioP2;P2;SDS_P1;SDS_P2;PMS_P1;PMS_P2;Temp;Humidity;BMP_temperature;BMP_pressure;BME280_temperature;BME280_humidity;BME280_pressure;Samples;Min_cycle;Max_cycle;Signal;HPM_P1;HPM_P2
2023/07/11 00:01:58;;;;;;;6.87;3.93;;;;;;;;;;5029191;28;20479;-81
2023/07/11 00:04:25;;;;;;;4.63;4.23;;;;;;;;;;5031469;28;20965;-81
2023/07/11 00:06:52;;;;;;;7.70;4.23;;;;;;;;;;5030396;28;20481;-82
2023/07/11 00:09:21;;;;;;;8.00;3.97;;;;;;;;;;5029440;28;20469;-82
2023/07/11 00:11:48;;;;;;;4.40;4.00;;;;;;;;;;5036858;28;20848;-82
2023/07/11 00:14:14;;;;;;;9.67;3.70;;;;;;;;;;5027890;28;20473;-82
2023/07/11 00:16:40;;;;;;;11.37;4.17;;;;;;;;;;5023105;28;20469;-82
2023/07/11 00:19:07;;;;;;;6.30;4.40;;;;;;;;;;5035495;28;20479;-82
2023/07/11 00:21:35;;;;;;;8.77;3.40;;;;;;;;;;5026362;28;20472;-80
2023/07/11 00:24:03;;;;;;;8.73;4.00;;;;;;;;;;5029202;28;20459;-82
2023/07/11 00:26:31;;;;;;;7.07;4.20;;;;;;;;;;5028598;28;20493;-78
2023/07/11 00:29:00;;;;;;;10.33;4.83;;;;;;;;;;5036640;28;20469;-80
2023/07/11 00:31:28;;;;;;;6.47;4.03;;;;;;;;;;5036689;28;20468;-81
2023/07/11 00:33:54;;;;;;;5.87;4.20;;;;;;;;;;5035177;28;20462;-81
2023/07/11 00:36:21;;;;;;;9.60;4.30;;;;;;;;;;5034694;28;20461;-82
2023/07/11 00:38:47;;;;;;;5.67;4.20;;;;;;;;;;5043936;28;20469;-81
2023/07/11 00:41:14;;;;;;;9.07;4.40;;;;;;;;;;5036048;28;20476;-81
2023/07/11 00:43:42;;;;;;;5.23;4.60;;;;;;;;;;5033825;28;20444;-80
2023/07/11 00:46:13;;;;;;;9.27;4.80;;;;;;;;;;5029644;28;21025;-81
2023/07/11 00:48:41;;;;;;;7.50;5.67;;;;;;;;;;5030284;28;20519;-80
2023/07/11 00:51:09;;;;;;;4.20;3.80;;;;;;;;;;5030579;28;20508;-82
2023/07/11 00:53:36;;;;;;;7.60;4.43;;;;;;;;;;5035856;28;20452;-81
2023/07/11 00:56:05;;;;;;;4.73;4.13;;;;;;;;;;5036706;28;20465;-80
2023/07/11 00:58:32;;;;;;;5.10;4.33;;;;;;;;;;5034605;28;20838;-81
2023/07/11 01:01:00;;;;;;;4.93;4.17;;;;;;;;;;5032693;28;21025;-82
2023/07/11 01:03:27;;;;;;;10.40;5.73;;;;;;;;;;5024032;28;20449;-82
2023/07/11 01:05:55;;;;;;;9.63;4.63;;;;;;;;;;5032685;28;20481;-81
2023/07/11 01:08:21;;;;;;;7.63;4.30;;;;;;;;;;5031553;28;20470;-82
2023/07/11 01:10:48;;;;;;;4.63;4.10;;;;;;;;;;5036564;28;20461;-81
2023/07/11 01:13:14;;;;;;;6.80;4.47;;;;;;;;;;5037029;28;20460;-82
2023/07/11 01:15:41;;;;;;;6.37;4.30;;;;;;;;;;5021120;28;20482;-82
2023/07/11 01:18:09;;;;;;;7.53;4.47;;;;;;;;;;5030485;28;20487;-81
2023/07/11 01:20:35;;;;;;;7.40;5.10;;;;;;;;;;5022010;28;20859;-82
2023/07/11 01:23:03;;;;;;;6.47;4.50;;;;;;;;;;5024938;28;20446;-82
2023/07/11 01:25:31;;;;;;;6.40;4.80;;;;;;;;;;5035173;28;20465;-82
2023/07/11 01:27:57;;;;;;;8.23;4.80;;;;;;;;;;5032483;28;20476;-82
2023/07/11 01:30:24;;;;;;;9.40;4.87;;;;;;;;;;5021721;28;20455;-82
2023/07/11 01:32:51;;;;;;;5.00;4.40;;;;;;;;;;5025511;28;20440;-81
2023/07/11 01:35:18;;;;;;;7.33;4.93;;;;;;;;;;5026943;28;20435;-82
2023/07/11 01:37:44;;;;;;;7.07;4.40;;;;;;;;;;5034534;28;20464;-82
2023/07/11 01:40:16;;;;;;;10.80;5.20;;;;;;;;;;5030735;28;21003;-81
2023/07/11 01:42:44;;;;;;;7.57;4.10;;;;;;;;;;5026982;28;20450;-82
2023/07/11 01:45:11;;;;;;;7.93;5.43;;;;;;;;;;5028253;28;21021;-82
2023/07/11 01:47:37;;;;;;;6.50;4.60;;;;;;;;;;5024323;28;20446;-81
2023/07/11 01:50:04;;;;;;;5.70;4.67;;;;;;;;;;5018187;28;20480;-81
2023/07/11 01:52:30;;;;;;;5.80;4.33;;;;;;;;;;5034275;28;20440;-82
2023/07/11 01:54:57;;;;;;;8.83;5.57;;;;;;;;;;5032555;28;20456;-82
2023/07/11 01:57:25;;;;;;;6.63;4.87;;;;;;;;;;5025868;28;20469;-82
2023/07/11 01:59:51;;;;;;;7.67;5.10;;;;;;;;;;5022387;28;20445;-81
2023/07/11 02:02:17;;;;;;;8.37;4.70;;;;;;;;;;5030792;28;20482;-81
2023/07/11 02:04:44;;;;;;;7.10;5.17;;;;;;;;;;5035294;28;20445;-82
2023/07/11 02:07:11;;;;;;;9.10;5.00;;;;;;;;;;5030808;28;20441;-83
2023/07/11 02:09:38;;;;;;;11.73;5.10;;;;;;;;;;5023289;28;20910;-81
2023/07/11 02:12:05;;;;;;;8.50;5.67;;;;;;;;;;5016183;28;20473;-82
2023/07/11 02:14:36;;;;;;;8.33;5.20;;;;;;;;;;5030751;28;20449;-82
2023/07/11 02:17:02;;;;;;;9.30;5.10;;;;;;;;;;5028652;28;20454;-81
2023/07/11 02:19:29;;;;;;;13.37;5.70;;;;;;;;;;5024735;28;20460;-82
2023/07/11 02:21:55;;;;;;;8.47;5.57;;;;;;;;;;5033634;28;20476;-82
2023/07/11 02:24:21;;;;;;;7.73;5.50;;;;;;;;;;5028297;28;20452;-81
2023/07/11 02:26:48;;;;;;;7.40;6.60;;;;;;;;;;5029425;28;20480;-82
2023/07/11 02:29:15;;;;;;;11.43;7.33;;;;;;;;;;5033463;28;20477;-81
2023/07/11 02:31:42;;;;;;;8.07;6.00;;;;;;;;;;5026780;28;20462;-82
2023/07/11 02:34:09;;;;;;;19.83;7.37;;;;;;;;;;5035489;28;20449;-81
2023/07/11 02:36:35;;;;;;;12.97;7.33;;;;;;;;;;5032367;28;20487;-81
2023/07/11 02:39:02;;;;;;;13.90;6.93;;;;;;;;;;5034609;28;20477;-80
2023/07/11 02:41:29;;;;;;;11.23;6.77;;;;;;;;;;5026793;28;20481;-81
2023/07/11 02:43:55;;;;;;;11.13;7.13;;;;;;;;;;5024437;28;20446;-82
2023/07/11 02:46:22;;;;;;;15.27;7.90;;;;;;;;;;5046056;28;20473;-81
2023/07/11 02:48:50;;;;;;;12.93;7.40;;;;;;;;;;5028660;28;20473;-82
2023/07/11 02:51:16;;;;;;;10.80;7.63;;;;;;;;;;5029779;28;20477;-81
2023/07/11 02:53:44;;;;;;;9.77;7.30;;;;;;;;;;5027448;28;20974;-81
2023/07/11 02:56:11;;;;;;;15.47;9.23;;;;;;;;;;5020649;28;20891;-81
2023/07/11 02:58:37;;;;;;;12.37;8.83;;;;;;;;;;5028676;28;20477;-81
2023/07/11 03:01:04;;;;;;;14.40;8.40;;;;;;;;;;5028911;28;20448;-81
2023/07/11 03:03:30;;;;;;;14.20;8.10;;;;;;;;;;5032722;28;20467;-82
2023/07/11 03:05:59;;;;;;;14.70;8.43;;;;;;;;;;5027548;28;21028;-81
2023/07/11 03:08:26;;;;;;;10.67;7.67;;;;;;;;;;5030269;28;20485;-81
2023/07/11 03:10:52;;;;;;;10.40;8.00;;;;;;;;;;5034916;28;20480;-81
2023/07/11 03:13:20;;;;;;;11.17;8.00;;;;;;;;;;5030616;28;20448;-82
2023/07/11 03:15:46;;;;;;;15.07;8.20;;;;;;;;;;5033322;28;20451;-81
2023/07/11 03:18:13;;;;;;;12.80;7.17;;;;;;;;;;5033203;28;20518;-81
2023/07/11 03:20:41;;;;;;;12.87;8.07;;;;;;;;;;5032043;28;20469;-81
2023/07/11 03:23:09;;;;;;;16.17;7.77;;;;;;;;;;5030175;28;20423;-81
2023/07/11 03:25:36;;;;;;;15.70;8.33;;;;;;;;;;5018968;28;20854;-82
2023/07/11 03:28:03;;;;;;;15.30;8.07;;;;;;;;;;5023696;28;20444;-81
2023/07/11 03:30:31;;;;;;;12.50;8.33;;;;;;;;;;5026118;28;21012;-82
2023/07/11 03:32:57;;;;;;;13.37;7.97;;;;;;;;;;5034141;28;20925;-80
2023/07/11 03:35:24;;;;;;;11.77;7.90;;;;;;;;;;5032393;28;20472;-82
2023/07/11 03:37:50;;;;;;;12.80;8.00;;;;;;;;;;5023876;28;20480;-81
2023/07/11 03:40:18;;;;;;;15.63;9.40;;;;;;;;;;5031169;28;20484;-81
2023/07/11 03:42:45;;;;;;;9.60;7.93;;;;;;;;;;5018078;28;20994;-81
2023/07/11 03:45:13;;;;;;;12.23;8.10;;;;;;;;;;5038488;28;20784;-81
2023/07/11 03:47:39;;;;;;;11.63;7.87;;;;;;;;;;5034365;28;20485;-81
2023/07/11 03:50:06;;;;;;;11.50;7.20;;;;;;;;;;5029112;28;20436;-82
2023/07/11 03:52:34;;;;;;;12.43;8.70;;;;;;;;;;5023015;28;20442;-81
2023/07/11 03:55:00;;;;;;;8.80;7.37;;;;;;;;;;5047407;28;20504;-82
2023/07/11 03:57:28;;;;;;;15.23;7.60;;;;;;;;;;5032537;28;20514;-81
2023/07/11 03:59:55;;;;;;;9.43;6.83;;;;;;;;;;5028381;28;20444;-83
2023/07/11 04:02:21;;;;;;;14.07;8.10;;;;;;;;;;5032446;28;20459;-81
2023/07/11 04:04:48;;;;;;;14.27;7.70;;;;;;;;;;5032330;28;20446;-81
2023/07/11 04:07:14;;;;;;;12.43;8.13;;;;;;;;;;5035480;28;20905;-81
2023/07/11 04:09:41;;;;;;;9.23;6.73;;;;;;;;;;5037514;28;20420;-83
2023/07/11 04:12:08;;;;;;;13.23;7.70;;;;;;;;;;5023671;28;20461;-81
2023/07/11 04:14:36;;;;;;;12.90;7.20;;;;;;;;;;5031172;28;20457;-81
2023/07/11 04:17:03;;;;;;;12.50;6.90;;;;;;;;;;5032252;28;20485;-82
2023/07/11 04:19:29;;;;;;;9.97;7.03;;;;;;;;;;5031689;28;20465;-82
2023/07/11 04:21:56;;;;;;;9.00;6.90;;;;;;;;;;5033779;28;20473;-82
2023/07/11 04:24:22;;;;;;;9.90;6.73;;;;;;;;;;5030939;28;20928;-82
2023/07/11 04:26:49;;;;;;;17.17;7.67;;;;;;;;;;5035402;28;20489;-81
2023/07/11 04:29:15;;;;;;;12.07;6.50;;;;;;;;;;5036313;28;20465;-81
2023/07/11 04:31:45;;;;;;;14.27;6.97;;;;;;;;;;5032070;28;20998;-81
2023/07/11 04:34:11;;;;;;;9.73;6.63;;;;;;;;;;5032375;28;20460;-81
2023/07/11 04:36:39;;;;;;;9.60;7.10;;;;;;;;;;5029879;28;20541;-81
2023/07/11 04:39:06;;;;;;;11.30;5.70;;;;;;;;;;5036953;28;20445;-81
2023/07/11 04:41:33;;;;;;;10.53;6.73;;;;;;;;;;5037018;28;20481;-82
2023/07/11 04:43:59;;;;;;;12.20;6.60;;;;;;;;;;5031580;28;20445;-81
2023/07/11 04:46:25;;;;;;;11.93;6.87;;;;;;;;;;5031386;28;20477;-81
2023/07/11 04:48:53;;;;;;;9.93;5.90;;;;;;;;;;5027946;28;20472;-82
2023/07/11 04:51:20;;;;;;;11.80;5.77;;;;;;;;;;5041363;28;20464;-81
2023/07/11 04:53:46;;;;;;;8.67;5.57;;;;;;;;;;5056652;28;20444;-81
2023/07/11 04:56:14;;;;;;;6.47;5.10;;;;;;;;;;5057169;28;20840;-81
2023/07/11 04:58:40;;;;;;;8.80;5.60;;;;;;;;;;5047799;28;20474;-81
2023/07/11 05:01:11;;;;;;;20.10;6.40;;;;;;;;;;5039266;28;20476;-82
2023/07/11 05:03:39;;;;;;;10.90;6.17;;;;;;;;;;5032758;28;20441;-81
2023/07/11 05:06:07;;;;;;;9.97;6.20;;;;;;;;;;5027471;28;20480;-82
2023/07/11 05:08:34;;;;;;;14.77;5.70;;;;;;;;;;5030694;28;20469;-81
2023/07/11 05:11:02;;;;;;;14.03;6.67;;;;;;;;;;5032879;28;20552;-81
2023/07/11 05:13:29;;;;;;;13.30;6.23;;;;;;;;;;5037183;28;20445;-82
2023/07/11 05:15:58;;;;;;;10.00;5.70;;;;;;;;;;5035421;28;20473;-81
2023/07/11 05:18:24;;;;;;;13.40;5.90;;;;;;;;;;5024245;28;20468;-81
2023/07/11 05:20:53;;;;;;;9.20;5.20;;;;;;;;;;5028428;28;20469;-81
2023/07/11 05:23:20;;;;;;;13.27;5.67;;;;;;;;;;5032380;28;20491;-82
2023/07/11 05:25:47;;;;;;;9.50;5.57;;;;;;;;;;5028495;28;20469;-82
2023/07/11 05:28:14;;;;;;;8.63;5.20;;;;;;;;;;5016658;28;20485;-81
2023/07/11 05:30:42;;;;;;;7.43;5.37;;;;;;;;;;5028043;28;20473;-82
2023/07/11 05:33:08;;;;;;;12.13;5.47;;;;;;;;;;5035893;28;20829;-82
2023/07/11 05:36:07;;;;;;;9.50;5.20;;;;;;;;;;5011893;28;20519;-81
2023/07/11 05:38:35;;;;;;;10.63;5.23;;;;;;;;;;5027409;28;20527;-81
2023/07/11 05:41:02;;;;;;;11.20;4.60;;;;;;;;;;5032000;28;20557;-82
2023/07/11 05:43:28;;;;;;;8.50;4.60;;;;;;;;;;5036370;28;20496;-81
2023/07/11 05:45:55;;;;;;;10.27;5.43;;;;;;;;;;5023203;28;20480;-81
2023/07/11 05:48:22;;;;;;;8.50;5.30;;;;;;;;;;5036282;28;20481;-82
2023/07/11 05:50:57;;;;;;;10.10;6.37;;;;;;;;;;5032781;28;20465;-80
2023/07/11 05:53:23;;;;;;;11.00;5.70;;;;;;;;;;5029463;28;20814;-81
2023/07/11 05:55:51;;;;;;;8.00;4.70;;;;;;;;;;5034183;28;20522;-81
2023/07/11 05:58:18;;;;;;;11.50;5.43;;;;;;;;;;5035848;28;20514;-82
2023/07/11 06:00:44;;;;;;;9.20;4.80;;;;;;;;;;5034616;28;20982;-81
2023/07/11 06:03:11;;;;;;;9.57;4.80;;;;;;;;;;5033049;28;20484;-81
2023/07/11 06:05:37;;;;;;;8.53;4.10;;;;;;;;;;5033862;28;20492;-81
2023/07/11 06:08:04;;;;;;;7.27;4.50;;;;;;;;;;5036465;28;20469;-82
2023/07/11 06:10:30;;;;;;;10.53;4.70;;;;;;;;;;5036597;28;20475;-82
2023/07/11 06:12:58;;;;;;;9.50;4.27;;;;;;;;;;5033132;28;20464;-81
2023/07/11 06:15:27;;;;;;;9.30;5.00;;;;;;;;;;5021233;28;20474;-81
2023/07/11 06:17:53;;;;;;;9.37;4.40;;;;;;;;;;5031775;28;20495;-81
2023/07/11 06:20:20;;;;;;;10.00;4.20;;;;;;;;;;5025366;28;20469;-82
2023/07/11 06:22:46;;;;;;;8.77;4.37;;;;;;;;;;5034480;28;20488;-81
2023/07/11 06:25:12;;;;;;;7.90;4.00;;;;;;;;;;5033325;28;20467;-81
2023/07/11 06:27:39;;;;;;;6.80;3.70;;;;;;;;;;5028634;28;20483;-80
2023/07/11 06:30:10;;;;;;;7.27;4.37;;;;;;;;;;5032421;28;20460;-81
2023/07/11 06:32:36;;;;;;;7.10;3.60;;;;;;;;;;5032787;28;20457;-83
2023/07/11 06:35:02;;;;;;;8.10;4.47;;;;;;;;;;5030723;28;20942;-82
2023/07/11 06:37:29;;;;;;;7.07;3.80;;;;;;;;;;5026625;28;21008;-82
2023/07/11 06:39:56;;;;;;;7.20;3.77;;;;;;;;;;5029791;28;20460;-81
2023/07/11 06:42:23;;;;;;;9.23;3.90;;;;;;;;;;5023873;28;20871;-81
2023/07/11 06:44:49;;;;;;;9.20;3.80;;;;;;;;;;5032097;28;20448;-81
2023/07/11 06:47:17;;;;;;;7.37;4.10;;;;;;;;;;5040397;28;20488;-81
2023/07/11 06:49:44;;;;;;;4.90;3.33;;;;;;;;;;5034290;28;20448;-82
2023/07/11 06:52:10;;;;;;;8.53;4.27;;;;;;;;;;5028699;28;20449;-82
2023/07/11 06:54:37;;;;;;;7.93;4.17;;;;;;;;;;5021969;28;20436;-81
2023/07/11 06:57:03;;;;;;;6.80;4.00;;;;;;;;;;5033254;28;20472;-81
2023/07/11 06:59:30;;;;;;;7.33;3.60;;;;;;;;;;5032082;28;20450;-81
2023/07/11 07:01:56;;;;;;;9.23;4.13;;;;;;;;;;5020992;28;20856;-81
2023/07/11 07:04:24;;;;;;;4.17;3.77;;;;;;;;;;5040378;28;20449;-82
2023/07/11 07:06:51;;;;;;;5.70;3.70;;;;;;;;;;5032947;28;21096;-81
2023/07/11 07:09:18;;;;;;;5.33;3.67;;;;;;;;;;5034417;28;20833;-82
2023/07/11 07:11:44;;;;;;;9.37;3.83;;;;;;;;;;5024914;28;20577;-82
2023/07/11 07:14:11;;;;;;;8.50;3.67;;;;;;;;;;5031969;28;20799;-81
2023/07/11 07:16:38;;;;;;;8.70;3.70;;;;;;;;;;5029289;28;20472;-81
2023/07/11 07:19:05;;;;;;;8.23;3.93;;;;;;;;;;5034731;28;20470;-81
2023/07/11 07:21:34;;;;;;;8.83;3.57;;;;;;;;;;5030577;28;20854;-80
2023/07/11 07:24:00;;;;;;;4.73;3.10;;;;;;;;;;5032946;28;20485;-82
2023/07/11 07:26:33;;;;;;;8.20;2.83;;;;;;;;;;5037455;28;20465;-82
2023/07/11 07:28:59;;;;;;;7.47;3.10;;;;;;;;;;5031610;28;20473;-82
2023/07/11 07:31:26;;;;;;;5.57;3.37;;;;;;;;;;5028904;28;20470;-81
2023/07/11 07:33:52;;;;;;;6.03;3.20;;;;;;;;;;5036500;28;20452;-81
2023/07/11 07:36:19;;;;;;;5.53;3.03;;;;;;;;;;5035596;28;20472;-81
2023/07/11 07:38:47;;;;;;;5.63;3.87;;;;;;;;;;5035713;28;20484;-81
2023/07/11 07:41:13;;;;;;;6.20;3.30;;;;;;;;;;5026459;28;21011;-82
2023/07/11 07:43:40;;;;;;;7.63;3.17;;;;;;;;;;5033691;28;20492;-82
2023/07/11 07:46:07;;;;;;;7.03;3.83;;;;;;;;;;5031961;28;20465;-82
2023/07/11 07:48:34;;;;;;;4.37;2.93;;;;;;;;;;5026569;28;20466;-81
2023/07/11 07:51:03;;;;;;;5.53;3.83;;;;;;;;;;5028174;28;20473;-81
2023/07/11 07:53:30;;;;;;;8.70;4.37;;;;;;;;;;5032905;28;20449;-83
2023/07/11 07:56:03;;;;;;;6.30;3.03;;;;;;;;;;5028350;28;20564;-81
2023/07/11 07:58:29;;;;;;;9.87;3.80;;;;;;;;;;5037652;28;20477;-80
2023/07/11 08:00:56;;;;;;;5.43;3.70;;;;;;;;;;5032486;28;20472;-81
2023/07/11 08:03:22;;;;;;;3.73;3.20;;;;;;;;;;5037299;28;20507;-79
2023/07/11 08:05:49;;;;;;;5.90;3.83;;;;;;;;;;5030159;28;21005;-80
2023/07/11 08:08:15;;;;;;;15.13;4.80;;;;;;;;;;5035510;28;20464;-80
2023/07/11 08:10:42;;;;;;;6.53;3.80;;;;;;;;;;5030646;28;20476;-79
2023/07/11 08:13:10;;;;;;;3.90;3.10;;;;;;;;;;5031026;28;20448;-80
2023/07/11 08:15:36;;;;;;;9.23;3.10;;;;;;;;;;5037532;28;20476;-80
2023/07/11 08:18:02;;;;;;;5.73;3.40;;;;;;;;;;5031366;28;20484;-80
2023/07/11 08:20:29;;;;;;;5.20;3.47;;;;;;;;;;5026814;28;20468;-79
2023/07/11 08:22:55;;;;;;;5.10;3.60;;;;;;;;;;5022208;28;20489;-80
2023/07/11 08:25:22;;;;;;;9.20;3.73;;;;;;;;;;5033738;28;20503;-80
2023/07/11 08:27:48;;;;;;;6.30;3.67;;;;;;;;;;5034471;28;21049;-80
2023/07/11 08:30:16;;;;;;;3.97;2.97;;;;;;;;;;5035336;28;20464;-80
2023/07/11 08:32:43;;;;;;;4.03;3.10;;;;;;;;;;5037692;28;20457;-81
2023/07/11 08:35:10;;;;;;;4.07;2.63;;;;;;;;;;5038702;28;20470;-80
2023/07/11 08:37:36;;;;;;;3.83;2.87;;;;;;;;;;5049952;28;20468;-80
2023/07/11 08:40:03;;;;;;;6.70;2.63;;;;;;;;;;5057582;28;20456;-79
2023/07/11 08:42:32;;;;;;;5.13;2.80;;;;;;;;;;5055888;28;20448;-80
2023/07/11 08:45:03;;;;;;;5.10;3.00;;;;;;;;;;5055942;28;20443;-80
2023/07/11 08:47:33;;;;;;;4.40;3.60;;;;;;;;;;5042698;28;20464;-80
2023/07/11 08:50:08;;;;;;;3.97;3.13;;;;;;;;;;5055438;28;20447;-80
2023/07/11 08:52:35;;;;;;;11.33;3.70;;;;;;;;;;5056842;28;20447;-80
2023/07/11 08:55:06;;;;;;;3.70;3.30;;;;;;;;;;5048361;28;20457;-80
2023/07/11 08:57:36;;;;;;;4.60;3.60;;;;;;;;;;5050837;28;20483;-79
2023/07/11 09:00:06;;;;;;;4.27;3.20;;;;;;;;;;5047325;28;20472;-80
2023/07/11 09:02:37;;;;;;;6.57;2.90;;;;;;;;;;5043161;28;20845;-81
2023/07/11 09:05:05;;;;;;;3.53;3.10;;;;;;;;;;5049395;28;20925;-80
2023/07/11 09:07:35;;;;;;;4.50;4.10;;;;;;;;;;5043217;28;20464;-80
2023/07/11 09:10:02;;;;;;;3.67;3.30;;;;;;;;;;5040509;28;20965;-81
2023/07/11 09:12:33;;;;;;;7.17;3.70;;;;;;;;;;5043918;28;20467;-81
2023/07/11 09:15:03;;;;;;;4.67;3.40;;;;;;;;;;5048073;28;20441;-80
2023/07/11 09:17:35;;;;;;;6.87;3.10;;;;;;;;;;5051684;28;20468;-80
2023/07/11 09:20:07;;;;;;;7.47;3.40;;;;;;;;;;5055058;28;20474;-80
2023/07/11 09:22:41;;;;;;;5.40;3.20;;;;;;;;;;5040199;28;20440;-80
2023/07/11 09:25:12;;;;;;;13.53;3.07;;;;;;;;;;5046906;28;20495;-81
2023/07/11 09:27:41;;;;;;;3.77;3.03;;;;;;;;;;5050870;28;20464;-81
2023/07/11 09:30:14;;;;;;;4.00;3.60;;;;;;;;;;5051903;28;20473;-80
2023/07/11 09:32:40;;;;;;;7.07;3.10;;;;;;;;;;5051146;28;20447;-81
2023/07/11 09:35:20;;;;;;;6.10;3.17;;;;;;;;;;5055142;28;20467;-81
2023/07/11 09:37:47;;;;;;;3.57;2.90;;;;;;;;;;5049054;28;20468;-81
2023/07/11 09:40:17;;;;;;;5.13;3.10;;;;;;;;;;5052763;28;20471;-80
2023/07/11 09:42:46;;;;;;;5.50;3.27;;;;;;;;;;5052351;28;20450;-80
2023/07/11 09:45:13;;;;;;;7.63;4.00;;;;;;;;;;5040241;28;20531;-80
2023/07/11 09:47:41;;;;;;;9.90;3.37;;;;;;;;;;5050927;28;20468;-80
2023/07/11 09:50:20;;;;;;;4.90;2.93;;;;;;;;;;5050020;28;20884;-81
2023/07/11 09:52:47;;;;;;;5.83;3.40;;;;;;;;;;5056951;28;20945;-80
2023/07/11 09:55:23;;;;;;;3.80;3.40;;;;;;;;;;5042816;28;21015;-80
2023/07/11 09:57:50;;;;;;;2.90;2.50;;;;;;;;;;5052678;28;20470;-80
2023/07/11 10:00:18;;;;;;;4.60;3.07;;;;;;;;;;5045092;28;20484;-81
2023/07/11 10:02:46;;;;;;;4.33;3.20;;;;;;;;;;5051715;28;20451;-81
2023/07/11 10:05:16;;;;;;;7.03;3.30;;;;;;;;;;5052482;28;20460;-81
2023/07/11 10:07:42;;;;;;;4.10;3.70;;;;;;;;;;5053088;28;20467;-81
2023/07/11 10:10:14;;;;;;;3.90;3.00;;;;;;;;;;5054747;28;20468;-80
2023/07/11 10:12:42;;;;;;;4.67;2.97;;;;;;;;;;5043109;28;20470;-82
2023/07/11 10:15:14;;;;;;;8.40;3.87;;;;;;;;;;5052529;28;20504;-81
2023/07/11 10:17:42;;;;;;;3.33;3.03;;;;;;;;;;5056247;28;20468;-81
2023/07/11 10:20:13;;;;;;;9.00;4.00;;;;;;;;;;5049345;28;20475;-81
2023/07/11 10:22:42;;;;;;;5.90;3.40;;;;;;;;;;5055838;28;20436;-81
2023/07/11 10:25:15;;;;;;;3.80;3.20;;;;;;;;;;5053131;28;20464;-81
2023/07/11 10:27:43;;;;;;;5.70;3.37;;;;;;;;;;5046463;28;20471;-81
2023/07/11 10:30:16;;;;;;;3.90;2.83;;;;;;;;;;5044962;28;20473;-80
2023/07/11 10:32:44;;;;;;;4.50;3.23;;;;;;;;;;5054651;28;20945;-81
2023/07/11 10:35:14;;;;;;;3.73;2.97;;;;;;;;;;5053447;28;20895;-81
2023/07/11 10:37:43;;;;;;;4.13;3.20;;;;;;;;;;5055807;28;20463;-81
2023/07/11 10:40:14;;;;;;;7.27;3.03;;;;;;;;;;5053757;28;20475;-80
2023/07/11 10:42:43;;;;;;;2.70;2.50;;;;;;;;;;5045205;28;20447;-81
2023/07/11 10:45:14;;;;;;;2.80;2.57;;;;;;;;;;5053158;28;20969;-81
2023/07/11 10:47:45;;;;;;;6.70;3.33;;;;;;;;;;5053615;28;20472;-80
2023/07/11 10:50:22;;;;;;;6.60;3.20;;;;;;;;;;5047195;28;20472;-80
2023/07/11 10:52:52;;;;;;;3.50;2.73;;;;;;;;;;5038681;28;20440;-80
2023/07/11 10:55:19;;;;;;;3.77;3.43;;;;;;;;;;5036475;28;20470;-81
2023/07/11 10:57:50;;;;;;;4.70;2.83;;;;;;;;;;5041942;28;20465;-81
2023/07/11 11:00:17;;;;;;;4.00;3.00;;;;;;;;;;5033155;28;20489;-82
2023/07/11 11:02:51;;;;;;;3.63;3.20;;;;;;;;;;5031526;28;20934;-81
2023/07/11 11:05:21;;;;;;;6.93;3.47;;;;;;;;;;5038162;28;20503;-80
2023/07/11 11:07:50;;;;;;;7.17;3.27;;;;;;;;;;5035848;28;20476;-80
2023/07/11 11:10:26;;;;;;;5.03;3.40;;;;;;;;;;5032162;28;20468;-80
2023/07/11 11:12:56;;;;;;;3.80;2.80;;;;;;;;;;5039520;28;20462;-81
2023/07/11 11:15:26;;;;;;;4.10;3.00;;;;;;;;;;5033651;28;20559;-81
2023/07/11 11:17:57;;;;;;;3.47;3.17;;;;;;;;;;5034968;28;20469;-81
2023/07/11 11:20:27;;;;;;;4.00;2.97;;;;;;;;;;5035121;28;20480;-81
2023/07/11 11:23:00;;;;;;;5.93;2.97;;;;;;;;;;5031234;28;20452;-81
2023/07/11 11:25:30;;;;;;;5.67;3.30;;;;;;;;;;5033644;28;20473;-82
2023/07/11 11:28:05;;;;;;;3.93;3.30;;;;;;;;;;5037351;28;20465;-80
2023/07/11 11:30:38;;;;;;;4.13;3.40;;;;;;;;;;5038853;28;20839;-81
2023/07/11 11:33:12;;;;;;;5.23;3.50;;;;;;;;;;5028481;28;20942;-81
2023/07/11 11:35:45;;;;;;;6.00;3.60;;;;;;;;;;5026305;28;20468;-82
2023/07/11 11:38:18;;;;;;;10.20;3.73;;;;;;;;;;5040765;28;20490;-80
2023/07/11 11:40:49;;;;;;;5.30;3.67;;;;;;;;;;5038451;28;21033;-81
2023/07/11 11:43:16;;;;;;;3.70;3.10;;;;;;;;;;5039385;28;20452;-81
2023/07/11 11:45:43;;;;;;;6.40;4.20;;;;;;;;;;5029846;28;20468;-79
2023/07/11 11:48:14;;;;;;;7.57;3.40;;;;;;;;;;5034674;28;20460;-81
2023/07/11 11:50:41;;;;;;;10.47;3.77;;;;;;;;;;5034675;28;20526;-79
2023/07/11 11:53:18;;;;;;;5.80;3.37;;;;;;;;;;5020819;28;20442;-80
2023/07/11 11:55:52;;;;;;;5.93;4.70;;;;;;;;;;5021229;28;20496;-82
2023/07/11 11:58:19;;;;;;;6.83;3.83;;;;;;;;;;5036394;28;20482;-79
2023/07/11 12:00:46;;;;;;;4.57;3.10;;;;;;;;;;5050855;28;20469;-81
2023/07/11 12:03:20;;;;;;;6.50;3.23;;;;;;;;;;5038983;28;20452;-82
2023/07/11 12:05:51;;;;;;;5.13;3.17;;;;;;;;;;5031854;28;20473;-81
2023/07/11 12:08:24;;;;;;;3.53;3.23;;;;;;;;;;5027395;28;20466;-79
2023/07/11 12:11:16;;;;;;;4.23;3.07;;;;;;;;;;5018491;28;20492;-79
2023/07/11 12:13:44;;;;;;;6.67;3.20;;;;;;;;;;5033864;28;20432;-80
2023/07/11 12:16:29;;;;;;;5.07;3.70;;;;;;;;;;5036404;28;20476;-80
2023/07/11 12:18:57;;;;;;;6.33;3.67;;;;;;;;;;5035546;28;20479;-81
2023/07/11 12:21:39;;;;;;;4.20;3.23;;;;;;;;;;5026302;28;20469;-81
2023/07/11 12:24:18;;;;;;;4.20;2.90;;;;;;;;;;5032522;28;20473;-81
2023/07/11 12:26:46;;;;;;;4.07;3.30;;;;;;;;;;5026344;28;20465;-81
2023/07/11 12:29:29;;;;;;;4.50;3.07;;;;;;;;;;5034144;28;20970;-81
2023/07/11 12:32:11;;;;;;;5.67;2.93;;;;;;;;;;5027566;28;20469;-79
2023/07/11 12:34:42;;;;;;;4.47;2.80;;;;;;;;;;5033900;28;20510;-80
2023/07/11 12:37:10;;;;;;;5.40;3.40;;;;;;;;;;5036189;28;20468;-80
2023/07/11 12:39:43;;;;;;;3.73;3.33;;;;;;;;;;5032196;28;20456;-80
2023/07/11 12:42:24;;;;;;;7.40;4.17;;;;;;;;;;5036422;28;20461;-80
2023/07/11 12:44:50;;;;;;;4.60;3.70;;;;;;;;;;5019280;28;20496;-81
2023/07/11 12:47:19;;;;;;;5.23;3.13;;;;;;;;;;5050828;28;20432;-80
2023/07/11 12:49:48;;;;;;;4.13;3.00;;;;;;;;;;5049767;28;20447;-81
2023/07/11 12:52:16;;;;;;;4.27;3.20;;;;;;;;;;5044165;28;20441;-80
2023/07/11 12:54:42;;;;;;;7.57;3.70;;;;;;;;;;5053570;28;20462;-80
2023/07/11 12:57:13;;;;;;;7.23;4.00;;;;;;;;;;5032645;28;20459;-80
2023/07/11 12:59:41;;;;;;;5.27;3.40;;;;;;;;;;5033994;28;20464;-80
2023/07/11 13:02:09;;;;;;;6.30;3.67;;;;;;;;;;5037568;28;20445;-80
2023/07/11 13:04:36;;;;;;;4.90;3.70;;;;;;;;;;5027268;28;20516;-79
2023/07/11 13:07:04;;;;;;;4.33;3.27;;;;;;;;;;5035616;28;20476;-79
2023/07/11 13:09:39;;;;;;;6.57;3.73;;;;;;;;;;5027579;28;20448;-80
2023/07/11 13:12:08;;;;;;;5.77;3.83;;;;;;;;;;5033967;28;20476;-79
2023/07/11 13:14:35;;;;;;;3.63;3.30;;;;;;;;;;5030518;28;20452;-79
2023/07/11 13:17:03;;;;;;;4.20;3.80;;;;;;;;;;5034002;28;20472;-79
2023/07/11 13:19:29;;;;;;;5.97;3.23;;;;;;;;;;5035233;28;20445;-81
2023/07/11 13:21:56;;;;;;;5.87;3.60;;;;;;;;;;5036299;28;21006;-80
2023/07/11 13:24:24;;;;;;;4.57;3.90;;;;;;;;;;5023898;28;21013;-77
2023/07/11 13:26:51;;;;;;;3.20;2.90;;;;;;;;;;5035867;28;20476;-80
2023/07/11 13:29:18;;;;;;;7.63;3.57;;;;;;;;;;5032176;28;20478;-79
2023/07/11 13:31:45;;;;;;;6.63;3.73;;;;;;;;;;5034036;28;20998;-78
2023/07/11 13:34:14;;;;;;;8.53;3.90;;;;;;;;;;5033894;28;20452;-78
2023/07/11 13:36:42;;;;;;;6.63;3.50;;;;;;;;;;5028051;28;20481;-80
2023/07/11 13:39:11;;;;;;;4.30;3.70;;;;;;;;;;5021980;28;20472;-79
2023/07/11 13:41:39;;;;;;;6.30;3.63;;;;;;;;;;5018996;28;20480;-79
2023/07/11 13:44:13;;;;;;;4.13;2.80;;;;;;;;;;5019298;28;20472;-79
2023/07/11 13:46:39;;;;;;;8.30;4.30;;;;;;;;;;5034120;28;20476;-79
2023/07/11 13:49:12;;;;;;;4.97;3.50;;;;;;;;;;5026602;28;20472;-79
2023/07/11 13:51:40;;;;;;;3.20;2.90;;;;;;;;;;5027731;28;20469;-80
2023/07/11 13:54:08;;;;;;;4.23;3.40;;;;;;;;;;5034496;28;20473;-81
2023/07/11 13:56:34;;;;;;;4.70;3.43;;;;;;;;;;5035260;28;20859;-82
2023/07/11 13:59:01;;;;;;;7.70;3.17;;;;;;;;;;5035919;28;20475;-80
2023/07/11 14:01:28;;;;;;;3.97;3.33;;;;;;;;;;5035404;28;20473;-79
2023/07/11 14:03:55;;;;;;;9.83;4.70;;;;;;;;;;5025169;28;20463;-80
2023/07/11 14:06:21;;;;;;;6.60;3.77;;;;;;;;;;5033099;28;20465;-79
2023/07/11 14:08:49;;;;;;;5.93;3.03;;;;;;;;;;5021537;28;20470;-80
2023/07/11 14:11:17;;;;;;;3.90;3.23;;;;;;;;;;5035068;28;20476;-80
2023/07/11 14:13:43;;;;;;;3.70;3.20;;;;;;;;;;5025720;28;20441;-80
2023/07/11 14:16:10;;;;;;;4.23;3.10;;;;;;;;;;5035102;28;21005;-80
2023/07/11 14:18:37;;;;;;;3.80;3.33;;;;;;;;;;5017688;28;20544;-81
2023/07/11 14:21:04;;;;;;;3.90;3.20;;;;;;;;;;5033928;28;20480;-80
2023/07/11 14:23:31;;;;;;;4.40;3.50;;;;;;;;;;5030745;28;20444;-79
2023/07/11 14:25:59;;;;;;;4.20;3.40;;;;;;;;;;5029064;28;20555;-80
2023/07/11 14:28:25;;;;;;;4.23;2.97;;;;;;;;;;5023862;28;21002;-80
2023/07/11 14:30:53;;;;;;;6.57;3.23;;;;;;;;;;5028783;28;20476;-80
2023/07/11 14:33:20;;;;;;;6.13;3.70;;;;;;;;;;5022710;28;20464;-79
2023/07/11 14:35:47;;;;;;;3.13;2.80;;;;;;;;;;5026132;28;20854;-81
2023/07/11 14:38:14;;;;;;;3.53;3.20;;;;;;;;;;5024001;28;20473;-80
2023/07/11 14:40:41;;;;;;;5.70;3.03;;;;;;;;;;5028476;28;20461;-80
2023/07/11 14:43:12;;;;;;;4.23;3.20;;;;;;;;;;5029319;28;20445;-79
2023/07/11 14:45:39;;;;;;;4.50;3.47;;;;;;;;;;5026600;28;20480;-79
2023/07/11 14:48:13;;;;;;;6.53;3.27;;;;;;;;;;5041039;28;20469;-81